Time;durP1;ratioP1;P1;durP2;ratioP2;P2;SDS_P1;SDS_P2;PMS_P1;PMS_P2;Temp;Humidity;BMP_temperature;BMP_pressure;BME280_temperature;BME280_humidity;BME280_pressure;Samples;Min_cycle;Max_cycle;Signal;HPM_P1;HPM_P2
2023/08/08 00:31:47;;;;;;;0.90;0.80;;;;;;;13.59;88.68;98499.53;179344;1289;22807;31
2023/08/08 01:35:08;;;;;;;1.30;0.90;;;;;;;12.26;89.71;98517.96;179338;1280;22973;31
2023/08/08 02:07:10;;;;;;;1.80;0.90;;;;;;;12.12;90.13;98521.84;179383;1289;22793;31
2023/08/08 02:38:33;;;;;;;2.80;1.10;;;;;;;12.14;90.24;98531.75;179363;1289;22784;31
2023/08/08 03:10:12;;;;;;;2.00;1.40;;;;;;;12.40;89.55;98552.52;179456;1289;22856;31
2023/08/08 04:13:53;;;;;;;2.50;1.80;;;;;;;12.60;88.47;98606.29;179474;1285;22829;31
2023/08/08 04:45:20;;;;;;;5.70;3.10;;;;;;;12.80;88.06;98647.80;179552;1289;23021;31
2023/08/08 06:52:24;;;;;;;2.90;1.40;;;;;;;15.34;81.26;98683.80;179244;1286;23158;31
2023/08/08 07:24:10;;;;;;;2.50;1.60;;;;;;;16.64;77.20;98673.95;179716;1285;23878;31
2023/08/08 07:55:27;;;;;;;1.90;1.40;;;;;;;17.57;72.46;98657.87;179116;1285;22798;31
2023/08/08 08:27:08;;;;;;;4.30;1.60;;;;;;;18.14;68.73;98632.80;179033;1286;22828;31
2023/08/08 08:59:10;;;;;;;3.00;1.10;;;;;;;17.83;67.05;98640.67;179147;1285;22860;31
2023/08/08 09:30:34;;;;;;;1.80;1.20;;;;;;;18.10;64.30;98648.11;179050;1289;23230;31
2023/08/08 10:33:53;;;;;;;1.60;1.00;;;;;;;17.91;63.30;98640.76;178961;1282;22790;31
2023/08/08 11:04:26;;;;;;;3.90;1.40;;;;;;;20.38;59.41;98630.88;202669;1286;22584;-74
2023/08/08 11:09:30;;;;;;;1.00;0.90;;;;;;;20.64;57.57;98633.45;221103;1298;22583;-76
2023/08/08 11:14:32;;;;;;;1.20;0.90;;;;;;;20.83;57.24;98634.98;220938;1305;24477;-74
2023/08/08 11:19:41;;;;;;;0.80;0.80;;;;;;;20.68;56.25;98639.83;220728;1305;22568;-74
2023/08/08 11:24:43;;;;;;;2.40;0.90;;;;;;;20.61;56.52;98638.80;221032;1301;22740;-74
2023/08/08 11:29:51;;;;;;;0.90;0.90;;;;;;;20.48;55.79;98642.50;220887;1301;22709;-73
2023/08/08 11:34:57;;;;;;;1.60;0.90;;;;;;;20.37;56.08;98648.41;220752;1304;22728;-74
2023/08/08 11:39:59;;;;;;;1.90;1.20;;;;;;;20.45;56.24;98644.95;220957;1298;25347;-74
2023/08/08 11:45:04;;;;;;;1.30;0.90;;;;;;;20.64;56.82;98642.36;220977;1288;22595;-74
2023/08/08 11:50:08;;;;;;;1.50;1.00;;;;;;;20.82;56.40;98652.08;220975;1301;22617;-72
2023/08/08 11:55:10;;;;;;;3.50;1.10;;;;;;;20.91;55.94;98652.85;221043;1305;22596;-74
2023/08/08 12:00:12;;;;;;;1.30;1.10;;;;;;;20.98;56.05;98653.86;221269;1301;22945;-73
2023/08/08 12:05:21;;;;;;;1.60;1.10;;;;;;;21.07;55.30;98649.55;221353;1306;22585;-74
2023/08/08 12:10:24;;;;;;;1.90;1.10;;;;;;;21.17;55.20;98651.56;221140;1292;25428;-74
2023/08/08 12:15:34;;;;;;;1.50;1.00;;;;;;;21.25;54.20;98655.12;221044;1295;22875;-73
2023/08/08 12:20:37;;;;;;;2.00;1.10;;;;;;;21.26;55.19;98661.85;221027;1304;23225;-75
2023/08/08 12:25:39;;;;;;;2.00;1.00;;;;;;;21.38;54.92;98655.40;221102;1303;22592;-75
2023/08/08 12:30:41;;;;;;;1.40;1.30;;;;;;;21.24;54.68;98654.47;220906;1294;22647;-75
2023/08/08 12:35:43;;;;;;;1.00;1.00;;;;;;;21.17;55.38;98658.27;221126;1304;24345;-75
2023/08/08 12:40:45;;;;;;;1.10;0.90;;;;;;;21.07;54.06;98659.60;221066;1305;22619;-74
2023/08/08 12:45:47;;;;;;;1.90;1.10;;;;;;;20.83;53.50;98655.14;221071;1286;22594;-74
2023/08/08 12:50:49;;;;;;;1.10;0.80;;;;;;;20.54;54.04;98655.48;221134;1305;22642;-74
2023/08/08 12:55:51;;;;;;;1.90;1.20;;;;;;;20.57;55.03;98650.64;221244;1301;22598;-74
2023/08/08 13:00:53;;;;;;;1.70;1.00;;;;;;;20.68;55.51;98642.34;220951;1304;23375;-75
2023/08/08 13:05:55;;;;;;;0.90;0.80;;;;;;;20.93;55.75;98641.34;220970;1304;24270;-76
2023/08/08 13:10:57;;;;;;;1.50;1.20;;;;;;;21.15;55.24;98634.45;220956;1299;22576;-73
2023/08/08 13:15:59;;;;;;;1.30;1.20;;;;;;;21.29;54.72;98629.14;221186;1304;23023;-74
2023/08/08 13:21:02;;;;;;;1.20;1.10;;;;;;;21.40;54.00;98619.88;221113;1306;22571;-74
2023/08/08 13:26:04;;;;;;;2.10;1.10;;;;;;;21.45;53.39;98616.25;221249;1304;22577;-75
2023/08/08 13:31:07;;;;;;;1.10;1.00;;;;;;;21.25;53.58;98610.34;221229;1298;25268;-76
2023/08/08 13:36:10;;;;;;;1.10;1.10;;;;;;;21.04;54.14;98609.34;221182;1305;22568;-76
2023/08/08 13:41:12;;;;;;;1.80;1.20;;;;;;;20.94;54.92;98609.55;220968;1301;23408;-77
2023/08/08 13:46:14;;;;;;;1.50;1.20;;;;;;;21.00;54.64;98610.45;221218;1302;22572;-77
2023/08/08 13:51:16;;;;;;;2.80;1.40;;;;;;;21.06;54.97;98608.61;221170;1306;22575;-76
2023/08/08 13:56:19;;;;;;;2.20;1.00;;;;;;;21.29;53.78;98607.19;221001;1305;24410;-77
2023/08/08 14:01:21;;;;;;;2.50;1.10;;;;;;;21.48;53.12;98612.46;220821;1292;22933;-78
2023/08/08 14:06:24;;;;;;;1.90;1.10;;;;;;;21.52;52.36;98612.52;220744;1306;22577;-77
2023/08/08 14:11:26;;;;;;;0.90;0.90;;;;;;;21.57;52.99;98603.98;220912;1307;22566;-78
2023/08/08 14:16:28;;;;;;;2.30;1.70;;;;;;;21.62;53.43;98603.42;220831;1306;22590;-78
2023/08/08 14:21:30;;;;;;;2.30;1.20;;;;;;;21.64;53.12;98603.10;220450;1307;22587;-79
2023/08/08 14:26:33;;;;;;;1.60;1.00;;;;;;;21.67;53.21;98609.83;220550;1305;22596;-78
2023/08/08 14:31:35;;;;;;;2.70;1.10;;;;;;;21.66;52.84;98608.23;220905;1299;22634;-78
2023/08/08 14:36:51;;;;;;;2.20;1.10;;;;;;;21.63;52.08;98611.86;220943;1307;24313;-77
2023/08/08 14:41:53;;;;;;;1.10;1.00;;;;;;;21.67;52.38;98606.91;221330;1298;22547;-77
2023/08/08 14:46:55;;;;;;;3.00;1.20;;;;;;;21.64;52.78;98604.08;220989;1290;23469;-77
2023/08/08 14:51:58;;;;;;;1.10;1.00;;;;;;;21.46;52.47;98607.98;221025;1307;22566;-77
2023/08/08 14:57:01;;;;;;;1.50;1.20;;;;;;;21.19;52.82;98611.11;221180;1304;22579;-78
2023/08/08 15:02:04;;;;;;;1.10;1.00;;;;;;;21.24;53.24;98609.05;220968;1306;22557;-77
2023/08/08 15:07:06;;;;;;;2.20;1.10;;;;;;;21.18;53.87;98623.47;221032;1306;25907;-79
2023/08/08 15:12:08;;;;;;;2.10;1.20;;;;;;;21.03;54.17;98619.27;220972;1306;22576;-78
2023/08/08 15:17:10;;;;;;;1.20;1.10;;;;;;;20.71;54.89;98620.24;221132;1301;22569;-78
2023/08/08 15:22:12;;;;;;;1.80;1.60;;;;;;;20.36;56.00;98622.69;221184;1305;22748;-78
2023/08/08 15:27:14;;;;;;;1.60;1.30;;;;;;;20.01;56.79;98624.38;221011;1307;22708;-78
2023/08/08 15:32:17;;;;;;;2.40;1.60;;;;;;;19.61;57.35;98636.89;221114;1304;22575;-77
2023/08/08 15:37:19;;;;;;;4.30;2.10;;;;;;;19.25;59.33;98663.52;221154;1304;22588;-75
2023/08/08 15:42:21;;;;;;;4.20;2.10;;;;;;;18.64;63.23;98668.41;221257;1304;22572;-77
2023/08/08 15:47:23;;;;;;;1.60;1.40;;;;;;;18.16;65.37;98644.60;221320;1298;25314;-78
2023/08/08 15:52:26;;;;;;;1.80;1.70;;;;;;;17.99;66.52;98633.75;221085;1306;22575;-76
2023/08/08 15:57:28;;;;;;;2.40;2.20;;;;;;;17.94;67.86;98632.71;220892;1307;22572;-78
2023/08/08 16:02:30;;;;;;;3.10;2.50;;;;;;;17.92;68.23;98628.41;221292;1303;22565;-77
2023/08/08 16:07:32;;;;;;;3.40;2.30;;;;;;;17.96;69.29;98626.66;221150;1307;22599;-78
2023/08/08 16:12:35;;;;;;;3.60;2.30;;;;;;;18.00;69.31;98624.31;221004;1307;22567;-79
2023/08/08 16:17:37;;;;;;;2.80;1.80;;;;;;;17.98;69.24;98622.09;221165;1307;22675;-77
2023/08/08 16:22:39;;;;;;;5.20;2.40;;;;;;;17.96;69.80;98615.96;221132;1304;22571;-78
2023/08/08 16:27:43;;;;;;;2.90;2.10;;;;;;;17.95;70.33;98616.52;221187;1302;22575;-79
2023/08/08 16:32:45;;;;;;;4.00;1.90;;;;;;;17.86;70.42;98616.20;221010;1306;22594;-79
2023/08/08 16:37:47;;;;;;;2.40;2.20;;;;;;;17.69;70.92;98618.38;221337;1303;22939;-78
2023/08/08 16:42:49;;;;;;;2.30;2.10;;;;;;;17.63;71.98;98617.94;221200;1304;22568;-77
2023/08/08 16:47:51;;;;;;;3.90;2.00;;;;;;;17.74;72.56;98608.77;221009;1306;22598;-78
2023/08/08 16:52:53;;;;;;;2.00;1.70;;;;;;;17.81;72.78;98605.52;221114;1304;22571;-78
2023/08/08 16:57:56;;;;;;;4.10;2.40;;;;;;;17.85;72.50;98607.13;221096;1307;22572;-78
2023/08/08 17:02:58;;;;;;;3.30;2.00;;;;;;;17.82;72.02;98602.21;221085;1304;24943;-78
2023/08/08 17:08:02;;;;;;;1.80;1.70;;;;;;;17.76;71.90;98599.88;221324;1298;23265;-79
2023/08/08 17:13:04;;;;;;;2.20;1.70;;;;;;;17.74;71.55;98599.56;221037;1307;22572;-78
2023/08/08 17:18:06;;;;;;;15.80;13.10;;;;;;;17.65;70.98;98601.09;221154;1301;22579;-78
2023/08/08 17:23:09;;;;;;;3.50;1.90;;;;;;;17.53;70.83;98605.59;220943;1307;22575;-79
2023/08/08 17:28:11;;;;;;;2.30;1.90;;;;;;;17.41;71.20;98602.39;220866;1304;22607;-79
2023/08/08 17:33:13;;;;;;;2.40;1.60;;;;;;;17.29;71.21;98612.24;221113;1305;22586;-78
2023/08/08 17:38:15;;;;;;;2.80;2.00;;;;;;;17.12;71.30;98609.01;221263;1304;22569;-78
2023/08/08 17:43:17;;;;;;;3.90;1.90;;;;;;;16.96;71.42;98608.55;221234;1307;22566;-78
2023/08/08 17:48:20;;;;;;;2.70;1.90;;;;;;;16.79;71.54;98606.48;221297;1303;25366;-78
2023/08/08 17:53:22;;;;;;;3.40;2.60;;;;;;;16.63;71.70;98604.36;221306;1306;22594;-78
2023/08/08 17:58:25;;;;;;;2.60;2.40;;;;;;;16.50;72.38;98601.42;221310;1306;23117;-78
2023/08/08 18:03:29;;;;;;;3.60;2.40;;;;;;;16.38;72.73;98599.90;221017;1304;22560;-77
2023/08/08 18:08:32;;;;;;;3.70;2.70;;;;;;;16.25;72.94;98602.36;221000;1306;22628;-78
2023/08/08 18:13:34;;;;;;;4.70;2.40;;;;;;;16.10;73.38;98605.95;221124;1305;24287;-78
2023/08/08 18:18:37;;;;;;;2.90;1.80;;;;;;;15.95;73.63;98609.95;221326;1305;22592;-78
2023/08/08 18:23:39;;;;;;;4.90;2.30;;;;;;;15.79;73.71;98618.23;221103;1304;22651;-78
2023/08/08 18:28:41;;;;;;;3.10;2.10;;;;;;;15.66;73.94;98627.09;221001;1306;22568;-79
2023/08/08 18:33:44;;;;;;;5.40;3.30;;;;;;;15.52;74.00;98628.44;221071;1302;22608;-79
2023/08/08 18:38:46;;;;;;;3.10;2.70;;;;;;;15.39;74.34;98625.91;220999;1305;22623;-80
2023/08/08 18:43:49;;;;;;;3.30;2.70;;;;;;;15.27;74.40;98625.15;221154;1307;22598;-78
2023/08/08 18:48:51;;;;;;;3.30;2.80;;;;;;;15.18;74.46;98626.73;221316;1306;22579;-79
2023/08/08 18:53:54;;;;;;;4.40;3.00;;;;;;;15.11;74.61;98627.38;221141;1305;22580;-79
2023/08/08 18:58:57;;;;;;;4.10;3.30;;;;;;;15.05;74.82;98633.16;220976;1307;22547;-79
2023/08/08 19:04:01;;;;;;;6.50;3.30;;;;;;;15.01;75.05;98630.73;221152;1307;22645;-79
2023/08/08 19:09:08;;;;;;;3.50;3.00;;;;;;;15.00;75.11;98631.98;221024;1306;22599;-79
2023/08/08 19:14:11;;;;;;;4.50;2.60;;;;;;;14.99;75.19;98632.06;220993;1306;22609;-79
2023/08/08 19:19:15;;;;;;;5.20;2.90;;;;;;;14.99;75.35;98630.19;221026;1306;22590;-79
2023/08/08 19:24:18;;;;;;;3.60;2.50;;;;;;;14.98;75.35;98631.47;220878;1306;22575;-79
2023/08/08 19:29:21;;;;;;;5.20;2.80;;;;;;;14.95;75.39;98627.17;221078;1304;22563;-79
2023/08/08 19:34:23;;;;;;;3.60;2.70;;;;;;;14.90;75.48;98631.34;220989;1306;22576;-78
2023/08/08 19:39:27;;;;;;;4.20;2.70;;;;;;;14.81;75.66;98625.88;221311;1306;22595;-80
2023/08/08 19:44:29;;;;;;;2.80;2.30;;;;;;;14.74;75.87;98626.45;221048;1284;22595;-79
2023/08/08 19:49:34;;;;;;;4.50;2.90;;;;;;;14.70;76.03;98623.45;221140;1307;22594;-79
2023/08/08 19:54:37;;;;;;;3.50;3.00;;;;;;;14.70;76.31;98619.41;221009;1298;22609;-79
2023/08/08 19:59:41;;;;;;;4.00;3.00;;;;;;;14.71;76.41;98622.67;221124;1306;22650;-80
2023/08/08 20:04:43;;;;;;;5.40;2.80;;;;;;;14.72;76.49;98624.80;220980;1302;22586;-80
2023/08/08 20:09:45;;;;;;;3.40;2.90;;;;;;;14.74;76.49;98623.15;220994;1299;22565;-77
2023/08/08 20:14:47;;;;;;;3.00;2.70;;;;;;;14.75;76.49;98623.63;221244;1307;22567;-80
2023/08/08 20:19:51;;;;;;;3.10;2.80;;;;;;;14.77;76.62;98623.73;220973;1304;22567;-79
2023/08/08 20:24:53;;;;;;;5.00;2.60;;;;;;;14.79;76.78;98626.63;221018;1307;22579;-79
2023/08/08 20:29:55;;;;;;;3.80;2.40;;;;;;;14.81;76.67;98623.29;221113;1304;22582;-79
2023/08/08 20:34:58;;;;;;;2.90;2.40;;;;;;;14.84;76.79;98623.25;221341;1305;22606;-79
2023/08/08 20:40:00;;;;;;;2.80;2.50;;;;;;;14.85;76.66;98621.73;221038;1306;22637;-79
2023/08/08 20:45:04;;;;;;;2.50;2.20;;;;;;;14.81;76.66;98634.67;221106;1304;22598;-78
2023/08/08 20:50:06;;;;;;;3.90;2.20;;;;;;;14.75;76.68;98635.37;221095;1300;24292;-78
2023/08/08 20:55:08;;;;;;;2.80;2.00;;;;;;;14.67;76.70;98630.82;221121;1305;22576;-79
2023/08/08 21:00:11;;;;;;;2.70;2.10;;;;;;;14.61;77.05;98631.23;220990;1307;22655;-79
2023/08/08 21:05:13;;;;;;;3.00;2.00;;;;;;;14.60;77.13;98620.73;221138;1305;23210;-79
2023/08/08 21:10:19;;;;;;;2.10;1.70;;;;;;;14.65;77.09;98622.62;221149;1307;22573;-78
2023/08/08 21:15:22;;;;;;;2.40;1.50;;;;;;;14.72;77.00;98627.83;221081;1307;22583;-79
2023/08/08 21:20:24;;;;;;;1.50;1.20;;;;;;;14.83;76.97;98627.90;221113;1307;24421;-81
2023/08/08 21:25:26;;;;;;;1.50;1.30;;;;;;;14.94;76.86;98621.33;221110;1305;22593;-79
2023/08/08 21:30:28;;;;;;;1.60;1.20;;;;;;;15.00;76.74;98621.50;221257;1298;22576;-78
2023/08/08 21:35:30;;;;;;;1.30;1.20;;;;;;;15.05;76.66;98625.22;221163;1301;22575;-79
2023/08/08 21:40:32;;;;;;;2.70;1.40;;;;;;;15.07;76.54;98622.05;220960;1304;24216;-78
2023/08/08 21:45:34;;;;;;;1.40;1.20;;;;;;;15.09;76.40;98620.73;220990;1307;22643;-79
2023/08/08 21:50:37;;;;;;;1.30;1.20;;;;;;;15.12;76.14;98619.80;221321;1305;22945;-78
2023/08/08 21:55:39;;;;;;;1.20;1.10;;;;;;;15.13;76.06;98614.27;221005;1307;22607;-78
2023/08/08 22:00:41;;;;;;;2.00;1.00;;;;;;;15.13;75.83;98612.58;221122;1307;22556;-78
2023/08/08 22:05:43;;;;;;;3.40;1.40;;;;;;;15.09;75.88;98609.17;221007;1307;25491;-78
2023/08/08 22:10:46;;;;;;;1.50;1.00;;;;;;;15.07;76.03;98620.66;221036;1306;23299;-78
2023/08/08 22:15:49;;;;;;;1.80;1.20;;;;;;;15.06;76.05;98625.70;221313;1304;22580;-78
2023/08/08 22:20:52;;;;;;;1.50;1.10;;;;;;;15.05;76.06;98633.00;221491;1304;22613;-78
2023/08/08 22:25:53;;;;;;;1.70;1.40;;;;;;;15.03;76.04;98630.80;221623;1305;22584;-79
2023/08/08 22:30:56;;;;;;;2.20;1.20;;;;;;;15.00;76.18;98623.79;221590;1305;22574;-78
2023/08/08 22:35:58;;;;;;;3.50;1.20;;;;;;;14.97;76.17;98628.30;221639;1305;22625;-79
2023/08/08 22:41:01;;;;;;;1.80;1.30;;;;;;;14.95;76.24;98622.01;221645;1305;22580;-78
2023/08/08 22:46:03;;;;;;;2.50;1.20;;;;;;;14.95;75.96;98629.76;221474;1304;22584;-79
2023/08/08 22:51:06;;;;;;;1.80;1.20;;;;;;;14.91;75.86;98631.30;221540;1299;153488;-78
2023/08/08 22:56:09;;;;;;;3.10;1.40;;;;;;;14.86;76.03;98629.79;221689;1302;22567;-78
2023/08/08 23:01:12;;;;;;;1.50;1.30;;;;;;;14.80;76.02;98634.85;221710;1305;22568;-78
2023/08/08 23:06:14;;;;;;;2.70;1.40;;;;;;;14.77;76.39;98635.59;221701;1305;24316;-78
2023/08/08 23:11:17;;;;;;;2.10;1.50;;;;;;;14.75;76.60;98628.82;221503;1305;22576;-78
2023/08/08 23:16:19;;;;;;;3.40;1.50;;;;;;;14.73;76.70;98631.20;221514;1305;22584;-79
2023/08/08 23:21:21;;;;;;;2.00;1.40;;;;;;;14.71;76.70;98634.91;221658;1305;22578;-78
2023/08/08 23:26:23;;;;;;;2.90;1.50;;;;;;;14.68;77.06;98639.41;221707;1305;22577;-79
2023/08/08 23:31:26;;;;;;;2.20;1.40;;;;;;;14.67;77.13;98644.21;221627;1304;22581;-78
2023/08/08 23:36:28;;;;;;;1.90;1.40;;;;;;;14.66;77.44;98644.30;221668;1304;22576;-77
2023/08/08 23:41:30;;;;;;;2.80;1.40;;;;;;;14.65;77.42;98645.33;221611;1305;22595;-78
2023/08/08 23:46:33;;;;;;;2.30;1.60;;;;;;;14.64;77.76;98642.35;221475;1305;22594;-78
2023/08/08 23:51:36;;;;;;;2.40;1.70;;;;;;;14.62;77.85;98643.52;221705;1304;22594;-78
2023/08/08 23:56:43;;;;;;;3.00;1.70;;;;;;;14.60;77.72;98640.69;221521;1304;23081;-78
